createdAt,value
2019-05-12T00:01:58.693Z,3.67
2019-05-12T00:04:28.036Z,6.43
2019-05-12T00:06:58.518Z,3.40
2019-05-12T00:09:28.493Z,3.43
2019-05-12T00:11:59.050Z,5.93
2019-05-12T00:14:28.622Z,5.93
2019-05-12T00:16:58.123Z,5.67
2019-05-12T00:19:28.528Z,4.57
2019-05-12T00:21:58.737Z,4.13
2019-05-12T00:24:28.207Z,6.57
2019-05-12T00:27:00.253Z,6.13
2019-05-12T00:29:29.666Z,4.67
2019-05-12T00:31:59.493Z,5.87
2019-05-12T00:34:29.041Z,5.97
2019-05-12T00:36:58.653Z,6.30
2019-05-12T00:39:28.165Z,8.03
2019-05-12T00:41:58.638Z,11.87
2019-05-12T00:44:28.495Z,7.43
2019-05-12T00:46:58.025Z,8.97
2019-05-12T00:49:28.919Z,8.07
2019-05-12T00:51:58.766Z,7.73
2019-05-12T00:54:28.541Z,8.93
2019-05-12T00:56:58.541Z,7.77
2019-05-12T00:59:28.098Z,7.27
2019-05-12T01:01:58.653Z,8.57
2019-05-12T01:04:29.121Z,7.50
2019-05-12T01:06:58.818Z,9.07
2019-05-12T01:09:28.513Z,8.23
2019-05-12T01:11:58.901Z,6.17
2019-05-12T01:14:28.759Z,5.30
2019-05-12T01:16:58.101Z,7.03
2019-05-12T01:19:28.880Z,6.47
2019-05-12T01:21:58.819Z,6.80
2019-05-12T01:24:28.450Z,5.07
2019-05-12T01:26:58.263Z,6.87
2019-05-12T01:29:28.274Z,6.70
2019-05-12T01:32:07.867Z,6.77
2019-05-12T01:34:38.268Z,6.70
2019-05-12T01:37:23.147Z,6.27
2019-05-12T01:39:53.218Z,9.33
2019-05-12T01:42:22.811Z,7.00
2019-05-12T01:44:52.288Z,8.23
2019-05-12T01:47:21.584Z,7.10
2019-05-12T01:49:51.035Z,7.77
2019-05-12T01:52:20.578Z,8.73
2019-05-12T01:54:49.904Z,7.70
2019-05-12T01:57:19.306Z,12.97
2019-05-12T01:59:48.577Z,9.80
2019-05-12T02:02:18.080Z,11.20
2019-05-12T02:05:08.479Z,10.10
2019-05-12T02:07:55.165Z,11.03
2019-05-12T02:10:24.734Z,8.50
2019-05-12T02:12:54.277Z,6.93
2019-05-12T02:15:23.592Z,7.20
2019-05-12T02:17:52.885Z,6.40
2019-05-12T02:20:22.659Z,9.17
2019-05-12T02:22:52.004Z,7.60
2019-05-12T02:25:21.613Z,5.83
2019-05-12T02:27:50.882Z,9.53
2019-05-12T02:30:20.766Z,8.47
2019-05-12T02:32:57.481Z,7.70
2019-05-12T02:35:24.488Z,8.03
2019-05-12T02:37:54.801Z,6.83
2019-05-12T02:40:25.214Z,6.40
2019-05-12T02:42:54.868Z,7.67
2019-05-12T02:45:25.573Z,10.13
2019-05-12T02:47:55.230Z,7.93
2019-05-12T02:50:36.439Z,8.13
2019-05-12T02:53:06.517Z,7.73
2019-05-12T02:55:36.307Z,9.20
2019-05-12T02:58:06.598Z,10.03
2019-05-12T03:00:37.053Z,8.47
2019-05-12T03:03:09.150Z,8.90
2019-05-12T03:05:40.564Z,9.47
2019-05-12T03:08:09.958Z,9.63
2019-05-12T03:10:39.327Z,9.43
2019-05-12T03:13:08.626Z,8.90
2019-05-12T03:15:38.069Z,7.87
2019-05-12T03:18:07.540Z,8.70
2019-05-12T03:20:37.114Z,8.37
2019-05-12T03:23:07.017Z,11.10
2019-05-12T03:25:37.500Z,10.87
2019-05-12T03:28:09.380Z,10.97
2019-05-12T03:30:40.693Z,8.83
2019-05-12T03:33:11.726Z,9.70
2019-05-12T03:35:43.434Z,9.37
2019-05-12T03:38:14.515Z,6.50
2019-05-12T03:40:45.006Z,7.30
2019-05-12T03:43:14.459Z,6.77
2019-05-12T03:45:45.369Z,8.57
2019-05-12T03:48:15.271Z,7.23
2019-05-12T03:50:46.048Z,8.87
2019-05-12T03:53:16.308Z,7.77
2019-05-12T03:55:47.156Z,8.17
2019-05-12T03:58:16.951Z,6.20
2019-05-12T04:00:46.335Z,5.37
2019-05-12T04:03:15.812Z,5.20
2019-05-12T04:05:45.602Z,4.67
2019-05-12T04:08:16.059Z,6.03
2019-05-12T04:10:45.949Z,4.30
2019-05-12T04:13:15.657Z,7.83
2019-05-12T04:15:45.800Z,7.33
2019-05-12T04:18:16.384Z,6.47
2019-05-12T04:20:46.064Z,5.93
2019-05-12T04:23:15.822Z,6.10
2019-05-12T04:25:52.390Z,6.60
2019-05-12T04:28:16.666Z,5.40
2019-05-12T04:30:46.080Z,8.60
2019-05-12T04:33:16.056Z,6.03
2019-05-12T04:35:45.633Z,6.43
2019-05-12T04:38:15.411Z,6.30
2019-05-12T04:40:45.555Z,5.53
2019-05-12T04:43:15.218Z,5.23
2019-05-12T04:45:45.350Z,5.07
2019-05-12T04:48:20.228Z,4.97
2019-05-12T04:50:46.238Z,5.53
2019-05-12T04:53:15.638Z,4.27
2019-05-12T04:55:45.933Z,4.00
2019-05-12T04:58:16.171Z,4.33
2019-05-12T05:00:45.891Z,4.43
2019-05-12T05:03:15.228Z,4.63
2019-05-12T05:05:44.793Z,3.77
2019-05-12T05:08:19.170Z,3.50
2019-05-12T05:10:45.402Z,3.50
2019-05-12T05:13:15.222Z,3.27
2019-05-12T05:15:44.931Z,2.77
2019-05-12T05:18:14.309Z,3.03
2019-05-12T05:20:43.999Z,3.30
2019-05-12T05:23:14.198Z,6.20
2019-05-12T05:25:43.708Z,2.53
2019-05-12T05:28:14.630Z,2.30
2019-05-12T05:30:44.347Z,2.33
2019-05-12T05:33:14.935Z,2.23
2019-05-12T05:35:44.317Z,2.20
2019-05-12T05:38:19.224Z,2.47
2019-05-12T05:40:45.497Z,2.00
2019-05-12T05:43:18.640Z,1.87
2019-05-12T05:45:45.992Z,1.90
2019-05-12T05:48:15.305Z,1.83
2019-05-12T05:50:44.810Z,2.43
2019-05-12T05:53:19.362Z,1.90
2019-05-12T05:55:45.141Z,1.93
2019-05-12T05:58:15.421Z,1.93
2019-05-12T06:00:44.989Z,2.37
2019-05-12T06:03:22.734Z,1.63
2019-05-12T06:05:48.162Z,1.50
2019-05-12T06:08:20.742Z,1.60
2019-05-12T06:10:48.552Z,1.77
2019-05-12T06:13:21.101Z,2.60
2019-05-12T06:15:48.860Z,1.07
2019-05-12T06:18:18.228Z,1.13
2019-05-12T06:20:47.544Z,1.20
2019-05-12T06:23:16.918Z,1.10
2019-05-12T06:25:51.326Z,0.83
2019-05-12T06:28:17.567Z,0.93
2019-05-12T06:30:49.942Z,1.00
2019-05-12T06:33:22.777Z,1.33
2019-05-12T06:35:49.041Z,4.43
2019-05-12T06:38:18.522Z,1.97
2019-05-12T06:40:47.906Z,2.10
2019-05-12T06:43:17.206Z,0.97
2019-05-12T06:45:49.494Z,1.27
2019-05-12T06:48:19.420Z,2.10
2019-05-12T06:50:49.837Z,1.20
2019-05-12T06:53:20.076Z,1.57
2019-05-12T06:55:50.206Z,0.70
2019-05-12T06:58:26.364Z,0.50
2019-05-12T07:00:50.500Z,0.80
2019-05-12T07:03:26.179Z,1.13
2019-05-12T07:05:52.891Z,2.10
2019-05-12T07:08:29.945Z,3.23
2019-05-12T07:11:01.708Z,1.00
2019-05-12T07:13:29.225Z,0.93
2019-05-12T07:15:57.077Z,0.70
2019-05-12T07:18:32.592Z,0.73
2019-05-12T07:20:57.376Z,2.23
2019-05-12T07:23:30.233Z,0.50
2019-05-12T07:25:57.912Z,2.30
2019-05-12T07:28:30.451Z,0.80
2019-05-12T07:30:58.237Z,0.77
2019-05-12T07:33:32.784Z,1.43
2019-05-12T07:36:01.216Z,1.37
2019-05-12T07:38:34.356Z,0.80
2019-05-12T07:41:08.904Z,1.13
2019-05-12T07:43:35.527Z,1.73
2019-05-12T07:46:07.013Z,1.03
2019-05-12T07:48:40.310Z,1.50
2019-05-12T07:51:07.194Z,0.80
2019-05-12T07:53:36.607Z,1.07
2019-05-12T07:56:05.930Z,0.70
2019-05-12T07:58:35.437Z,0.77
2019-05-12T08:01:07.846Z,1.57
2019-05-12T08:03:35.721Z,2.07
2019-05-12T08:06:05.102Z,1.07
2019-05-12T08:08:34.469Z,1.10
2019-05-12T08:11:04.481Z,1.60
2019-05-12T08:13:37.845Z,1.23
2019-05-12T08:16:05.415Z,2.43
2019-05-12T08:18:37.095Z,1.30
2019-05-12T08:21:05.958Z,1.10
2019-05-12T08:23:37.954Z,2.20
2019-05-12T08:26:12.529Z,0.97
2019-05-12T08:28:40.440Z,2.10
2019-05-12T08:31:08.490Z,1.30
2019-05-12T08:33:37.779Z,0.90
2019-05-12T08:36:11.209Z,1.80
2019-05-12T08:38:38.237Z,1.13
2019-05-12T08:41:07.629Z,0.97
2019-05-12T08:43:40.615Z,0.50
2019-05-12T08:46:12.108Z,0.50
2019-05-12T08:48:38.996Z,0.43
2019-05-12T08:51:14.133Z,0.50
2019-05-12T08:53:39.962Z,0.70
2019-05-12T08:56:13.083Z,0.53
2019-05-12T08:58:50.389Z,0.37
2019-05-12T09:01:13.652Z,0.30
2019-05-12T09:03:44.289Z,2.60
2019-05-12T09:06:19.486Z,1.57
2019-05-12T09:08:49.312Z,0.40
2019-05-12T09:11:17.461Z,0.40
2019-05-12T09:13:54.366Z,1.30
2019-05-12T09:16:18.234Z,0.50
2019-05-12T09:18:47.527Z,0.60
2019-05-12T09:21:16.914Z,1.53
2019-05-12T09:23:46.371Z,1.57
2019-05-12T09:26:18.568Z,0.70
2019-05-12T09:28:50.233Z,1.40
2019-05-12T09:31:19.424Z,0.97
2019-05-12T09:33:48.902Z,0.90
2019-05-12T09:36:19.990Z,0.80
2019-05-12T09:38:53.693Z,0.80
2019-05-12T09:41:20.280Z,1.07
2019-05-12T09:43:50.533Z,0.90
2019-05-12T09:46:20.017Z,1.27
2019-05-12T09:48:52.371Z,2.63
2019-05-12T09:51:20.433Z,1.37
2019-05-12T09:53:51.118Z,1.10
2019-05-12T09:56:20.811Z,2.00
2019-05-12T09:58:59.052Z,1.67
2019-05-12T10:01:21.292Z,1.13
2019-05-12T10:03:50.615Z,1.30
2019-05-12T10:06:21.448Z,1.80
2019-05-12T10:08:50.972Z,1.87
2019-05-12T10:11:23.542Z,4.70
2019-05-12T10:13:54.299Z,3.17
2019-05-12T10:16:24.188Z,1.23
2019-05-12T10:18:53.652Z,2.17
2019-05-12T10:21:23.765Z,2.50
2019-05-12T10:24:00.116Z,1.60
2019-05-12T10:26:24.310Z,1.20
2019-05-12T10:28:58.124Z,1.57
2019-05-12T10:31:29.679Z,1.20
2019-05-12T10:34:14.930Z,0.97
2019-05-12T10:36:49.042Z,0.97
2019-05-12T10:39:17.876Z,1.00
2019-05-12T10:41:47.689Z,1.03
2019-05-12T10:44:17.170Z,1.10
2019-05-12T10:46:48.777Z,0.90
2019-05-12T10:49:18.089Z,1.77
2019-05-12T10:51:47.818Z,1.17
2019-05-12T10:54:17.155Z,8.30
2019-05-12T10:56:46.578Z,1.70
2019-05-12T10:59:28.886Z,1.20
2019-05-12T11:01:48.999Z,1.40
2019-05-12T11:04:23.456Z,1.23
2019-05-12T11:06:49.297Z,1.30
2019-05-12T11:09:21.228Z,0.77
2019-05-12T11:11:49.682Z,0.90
2019-05-12T11:14:20.192Z,2.47
2019-05-12T11:16:50.099Z,2.20
2019-05-12T11:19:19.637Z,1.10
2019-05-12T11:21:48.987Z,1.13
2019-05-12T11:24:18.267Z,0.80
2019-05-12T11:26:47.624Z,1.00
2019-05-12T11:29:16.979Z,1.10
2019-05-12T11:31:46.650Z,1.67
2019-05-12T11:34:15.969Z,1.20
2019-05-12T11:36:45.653Z,1.53
2019-05-12T11:39:14.985Z,0.80
2019-05-12T11:41:44.487Z,2.80
2019-05-12T11:44:14.023Z,1.30
2019-05-12T11:46:44.043Z,1.57
2019-05-12T11:49:13.882Z,1.47
2019-05-12T11:51:43.385Z,7.50
2019-05-12T11:54:13.669Z,3.13
2019-05-12T11:56:48.760Z,2.43
2019-05-12T11:59:14.520Z,1.23
2019-05-12T12:01:48.243Z,2.43
2019-05-12T12:04:15.821Z,1.03
2019-05-12T12:06:45.198Z,1.17
2019-05-12T12:09:18.721Z,2.23
2019-05-12T12:11:45.833Z,1.63
2019-05-12T12:14:18.160Z,2.90
2019-05-12T12:16:51.612Z,2.43
2019-05-12T12:19:18.586Z,1.10
2019-05-12T12:21:50.041Z,1.27
2019-05-12T12:24:21.388Z,2.00
2019-05-12T12:26:50.037Z,1.20
2019-05-12T12:29:19.334Z,2.17
2019-05-12T12:31:53.132Z,2.30
2019-05-12T12:34:25.516Z,1.50
2019-05-12T12:36:54.369Z,1.93
2019-05-12T12:39:24.043Z,1.40
2019-05-12T12:41:59.763Z,2.63
2019-05-12T12:44:24.446Z,1.00
2019-05-12T12:46:59.827Z,2.33
2019-05-12T12:49:24.850Z,1.87
2019-05-12T12:51:54.151Z,2.87
2019-05-12T12:54:23.800Z,2.77
2019-05-12T12:56:53.936Z,10.97
2019-05-12T12:59:24.036Z,1.87
2019-05-12T13:01:53.645Z,1.97
2019-05-12T13:04:24.832Z,3.33
2019-05-12T13:06:54.426Z,1.90
2019-05-12T13:09:26.630Z,1.90
2019-05-12T13:11:55.961Z,2.33
2019-05-12T13:14:28.675Z,1.93
2019-05-12T13:16:56.370Z,4.33
2019-05-12T13:19:25.700Z,4.77
2019-05-12T13:21:55.416Z,3.43
2019-05-12T13:24:24.858Z,3.33
2019-05-12T13:26:54.151Z,2.27
2019-05-12T13:29:28.342Z,2.10
2019-05-12T13:31:54.718Z,4.73
2019-05-12T13:34:28.702Z,2.23
2019-05-12T13:36:55.480Z,4.27
2019-05-12T13:39:24.836Z,4.17
2019-05-12T13:41:56.238Z,1.93
2019-05-12T13:44:25.238Z,4.03
2019-05-12T13:46:58.673Z,2.67
2019-05-12T13:49:30.044Z,2.63
2019-05-12T13:51:56.718Z,3.03
2019-05-12T13:54:29.873Z,3.93
2019-05-12T13:56:57.132Z,2.77
2019-05-12T13:59:26.533Z,3.37
2019-05-12T14:01:55.866Z,2.53
2019-05-12T14:04:27.903Z,2.87
2019-05-12T14:06:56.269Z,4.33
2019-05-12T14:09:25.603Z,3.93
2019-05-12T14:11:54.914Z,5.23
2019-05-12T14:14:24.386Z,2.43
2019-05-12T14:16:59.257Z,2.73
2019-05-12T14:19:24.844Z,2.23
2019-05-12T14:21:54.337Z,2.10
2019-05-12T14:24:23.697Z,3.03
2019-05-12T14:26:53.506Z,4.23
2019-05-12T14:29:26.617Z,3.83
2019-05-12T14:31:59.622Z,2.90
2019-05-12T14:34:24.992Z,5.33
2019-05-12T14:37:04.787Z,7.60
2019-05-12T14:39:25.505Z,5.17
2019-05-12T14:41:54.879Z,2.10
2019-05-12T14:44:24.404Z,2.73
2019-05-12T14:46:56.665Z,3.00
2019-05-12T14:49:28.413Z,3.43
2019-05-12T14:51:55.880Z,2.50
2019-05-12T14:54:25.185Z,2.40
2019-05-12T14:56:57.737Z,3.50
2019-05-12T14:59:30.272Z,3.10
2019-05-12T15:01:59.268Z,7.10
2019-05-12T15:04:29.965Z,3.17
2019-05-12T15:07:04.640Z,2.40
2019-05-12T15:09:30.563Z,8.00
2019-05-12T15:11:59.967Z,3.43
2019-05-12T15:14:32.556Z,3.73
2019-05-12T15:17:00.343Z,3.20
2019-05-12T15:19:29.982Z,3.73
2019-05-12T15:22:01.451Z,4.87
2019-05-12T15:24:30.713Z,4.67
2019-05-12T15:27:00.827Z,3.23
2019-05-12T15:29:30.608Z,4.87
2019-05-12T15:31:59.854Z,3.23
2019-05-12T15:34:29.469Z,6.30
2019-05-12T15:37:00.328Z,4.20
2019-05-12T15:39:30.011Z,3.43
2019-05-12T15:41:59.378Z,4.10
2019-05-12T15:44:31.505Z,3.70
2019-05-12T15:46:59.676Z,3.97
2019-05-12T15:49:28.977Z,2.93
2019-05-12T15:51:58.552Z,2.57
2019-05-12T15:54:30.903Z,3.83
2019-05-12T15:56:59.183Z,3.30
2019-05-12T15:59:28.630Z,3.30
2019-05-12T16:02:09.547Z,4.93
2019-05-12T16:04:33.887Z,18.17
2019-05-12T16:06:59.997Z,7.53
2019-05-12T16:09:29.289Z,3.70
2019-05-12T16:11:58.791Z,5.53
2019-05-12T16:14:30.548Z,4.77
2019-05-12T16:16:59.161Z,2.87
2019-05-12T16:19:28.432Z,3.77
2019-05-12T16:21:58.081Z,2.50
2019-05-12T16:24:27.614Z,2.70
2019-05-12T16:26:56.963Z,3.93
2019-05-12T16:29:26.312Z,4.87
2019-05-12T16:31:55.600Z,5.13
2019-05-12T16:34:24.883Z,3.30
2019-05-12T16:36:54.855Z,2.93
2019-05-12T16:39:30.341Z,4.20
2019-05-12T16:41:59.954Z,4.13
2019-05-12T16:44:26.445Z,5.00
2019-05-12T16:46:55.796Z,3.03
2019-05-12T16:49:32.988Z,3.13
2019-05-12T16:51:56.125Z,4.37
2019-05-12T16:54:25.769Z,3.03
2019-05-12T16:56:55.089Z,3.17
2019-05-12T16:59:24.742Z,2.60
2019-05-12T17:01:54.293Z,2.40
2019-05-12T17:04:23.932Z,3.43
2019-05-12T17:06:53.541Z,2.50
2019-05-12T17:09:24.019Z,3.30
2019-05-12T17:11:55.568Z,2.53
2019-05-12T17:14:24.745Z,5.27
2019-05-12T17:16:57.099Z,2.83
2019-05-12T17:19:26.451Z,4.20
2019-05-12T17:21:59.406Z,4.80
2019-05-12T17:24:26.819Z,5.47
2019-05-12T17:40:24.373Z,8.33
2019-05-12T17:43:05.215Z,3.73
2019-05-12T17:45:27.363Z,3.70
2019-05-12T17:48:03.038Z,3.30
2019-05-12T17:50:27.802Z,5.37
2019-05-12T17:53:00.651Z,4.23
2019-05-12T17:55:30.092Z,5.07
2019-05-12T17:57:59.429Z,4.80
2019-05-12T18:00:28.783Z,4.23
2019-05-12T18:03:14.568Z,4.03
2019-05-12T18:05:29.069Z,5.67
2019-05-12T18:07:58.334Z,4.93
2019-05-12T18:10:32.633Z,5.30
2019-05-12T18:12:59.777Z,5.47
2019-05-12T18:15:33.416Z,4.47
2019-05-12T18:18:01.305Z,6.30
2019-05-12T18:20:31.189Z,4.63
2019-05-12T18:23:03.833Z,6.30
2019-05-12T18:25:32.718Z,6.90
2019-05-12T18:28:03.778Z,5.57
2019-05-12T18:30:33.071Z,8.63
2019-05-12T18:33:04.780Z,6.10
2019-05-12T18:35:33.622Z,7.07
2019-05-12T18:38:07.897Z,10.03
2019-05-12T18:40:34.893Z,9.17
2019-05-12T18:43:04.192Z,7.53
2019-05-12T18:45:57.161Z,10.20
2019-05-12T18:48:25.454Z,5.90
2019-05-12T18:50:55.071Z,11.33
2019-05-12T18:53:31.395Z,7.57
2019-05-12T18:55:55.423Z,7.30
2019-05-12T18:58:30.577Z,7.27
2019-05-12T19:00:55.998Z,8.67
2019-05-12T19:03:25.687Z,8.33
2019-05-12T19:05:58.006Z,6.73
2019-05-12T19:08:26.134Z,6.97
2019-05-12T19:10:55.829Z,8.07
2019-05-12T19:13:25.655Z,7.83
2019-05-12T19:16:02.501Z,7.33
2019-05-12T19:18:32.479Z,8.03
2019-05-12T19:20:57.261Z,7.97
2019-05-12T19:23:34.798Z,10.37
2019-05-12T19:25:57.673Z,9.77
2019-05-12T19:28:27.071Z,7.57
2019-05-12T19:31:01.036Z,8.10
2019-05-12T19:33:27.463Z,9.80
2019-05-12T19:36:04.050Z,9.17
2019-05-12T19:38:27.776Z,8.63
2019-05-12T19:41:00.667Z,9.00
2019-05-12T19:43:28.983Z,8.67
2019-05-12T19:46:03.339Z,10.73
2019-05-12T19:48:35.223Z,8.47
2019-05-12T19:51:17.864Z,8.73
2019-05-12T19:53:33.537Z,10.17
2019-05-12T19:56:03.843Z,10.40
2019-05-12T19:58:34.000Z,9.67
2019-05-12T20:01:03.749Z,10.00
2019-05-12T20:03:33.580Z,9.13
2019-05-12T20:06:03.021Z,10.13
2019-05-12T20:08:32.302Z,10.00
2019-05-12T20:11:03.658Z,10.87
2019-05-12T20:13:35.870Z,11.37
2019-05-12T20:16:03.986Z,8.93
2019-05-12T20:18:36.175Z,8.87
2019-05-12T20:21:04.539Z,10.40
2019-05-12T20:23:33.934Z,10.10
2019-05-12T20:26:03.955Z,9.67
2019-05-12T20:28:34.582Z,10.63
2019-05-12T20:31:07.398Z,12.30
2019-05-12T20:33:36.758Z,14.03
2019-05-12T20:36:06.043Z,15.93
2019-05-12T20:38:36.912Z,12.67
2019-05-12T20:41:10.941Z,13.07
2019-05-12T20:43:41.073Z,11.67
2019-05-12T20:46:21.284Z,13.27
2019-05-12T20:48:44.634Z,13.67
2019-05-12T20:51:18.710Z,13.97
2019-05-12T20:53:45.082Z,16.20
2019-05-12T20:56:20.209Z,14.33
2019-05-12T20:58:46.482Z,14.77
2019-05-12T21:01:20.167Z,12.93
2019-05-12T21:03:50.833Z,16.23
2019-05-12T21:06:18.634Z,15.17
2019-05-12T21:08:53.644Z,14.37
2019-05-12T21:11:19.131Z,13.50
2019-05-12T21:13:48.593Z,16.53
2019-05-12T21:16:25.279Z,14.33
2019-05-12T21:19:05.889Z,16.80
2019-05-12T21:21:27.607Z,15.17
2019-05-12T21:23:59.046Z,11.57
2019-05-12T21:26:28.495Z,16.73
2019-05-12T21:28:56.045Z,12.77
2019-05-12T21:31:28.975Z,12.47
2019-05-12T21:33:56.430Z,12.90
2019-05-12T21:36:27.463Z,14.07
2019-05-12T21:38:59.491Z,15.03
2019-05-12T21:41:30.118Z,12.90
2019-05-12T21:43:59.992Z,16.10
2019-05-12T21:46:30.478Z,13.40
2019-05-12T21:49:06.691Z,16.77
2019-05-12T21:51:30.846Z,16.03
2019-05-12T21:54:00.161Z,17.53
2019-05-12T21:56:29.493Z,13.30
2019-05-12T21:58:58.862Z,15.50
2019-05-12T22:01:28.544Z,13.50
2019-05-12T22:04:02.271Z,14.57
2019-05-12T22:06:29.130Z,14.67
2019-05-12T22:09:02.817Z,15.80
2019-05-12T22:11:34.408Z,14.03
2019-05-12T22:14:04.636Z,16.10
2019-05-12T22:16:43.351Z,16.47
2019-05-12T22:19:06.842Z,14.60
2019-05-12T22:21:47.563Z,14.70
2019-05-12T22:24:07.110Z,14.87
2019-05-12T22:26:40.358Z,15.63
2019-05-12T22:29:07.422Z,17.77
2019-05-12T22:31:38.650Z,16.07
2019-05-12T22:34:07.940Z,16.83
2019-05-12T22:36:37.202Z,15.93
2019-05-12T22:39:07.741Z,20.07
2019-05-12T22:41:41.354Z,17.57
2019-05-12T22:44:08.045Z,19.83
2019-05-12T22:46:37.320Z,17.27
2019-05-12T22:49:10.455Z,18.00
2019-05-12T22:51:38.115Z,16.13
2019-05-12T22:54:10.617Z,15.87
2019-05-12T22:56:38.673Z,20.90
2019-05-12T22:59:07.957Z,17.20
2019-05-12T23:01:41.364Z,17.40
2019-05-12T23:04:08.335Z,18.07
2019-05-12T23:06:42.102Z,17.10
2019-05-12T23:09:08.868Z,15.87
2019-05-12T23:11:38.242Z,14.73
2019-05-12T23:14:12.684Z,18.00
2019-05-12T23:16:38.517Z,14.20
2019-05-12T23:19:12.006Z,16.93
2019-05-12T23:21:38.882Z,16.00
2019-05-12T23:24:08.181Z,19.23
2019-05-12T23:26:41.851Z,15.90
2019-05-12T23:29:08.542Z,17.80
2019-05-12T23:31:37.815Z,15.43
2019-05-12T23:34:12.320Z,16.90
2019-05-12T23:36:39.240Z,16.37
2019-05-12T23:39:08.613Z,17.43
2019-05-12T23:41:37.943Z,15.73
2019-05-12T23:44:07.305Z,14.87
2019-05-12T23:46:36.681Z,16.33
2019-05-12T23:49:06.010Z,17.13
2019-05-12T23:51:35.288Z,15.97
2019-05-12T23:54:04.638Z,19.23
2019-05-12T23:56:34.004Z,17.57
2019-05-12T23:59:04.469Z,15.20
